Potomac — WBF7534 — position and weather

sailwx.info

Track history (hours):
 
Tides and Currents Weather Stations Pressure Air Temp Water Temp Dewpoint Dewpoint Depression Visibility Wind Speed Wind Dir Waves Ship Positions

Potomac

Owner: POTOMAC ASSOCIATION, OAKLAND, CA. More information available from US FCC via Universal Licensing System and Coast Guard Vessel Documentation Center.

Last reported at 2017-Apr-26 06:40 UTC. Time now 2017-Apr-27 11:03 UTC.
Position N 37°48' W 122°17'.

Length 51 m; draft 3.1 m.

MMSI: 367166810.

Date/timePositionNaut miles runAvg speedWind from/ knotsBaromVisibWave heightAir tempDewpointWater temp
2017-Apr-26 06:40N 37°48' W 122°17'0 0.0
2017-Apr-26 06:30N 37°48' W 122°17'4 7.0
2017-Apr-26 06:00N 37°48' W 122°21'2 3.1
2017-Apr-26 05:30N 37°48' W 122°23'1 1.4
2017-Apr-26 05:00N 37°47' W 122°23'611.4
2017-Apr-26 04:30N 37°51' W 122°28'1 2.7
2017-Apr-26 04:00N 37°50' W 122°28'4 7.2
2017-Apr-26 03:30N 37°49' W 122°24'1 1.9
2017-Apr-26 03:00N 37°48' W 122°24'0 1.0
2017-Apr-26 02:30N 37°47' W 122°23'3 6.0
2017-Apr-26 02:00N 37°48' W 122°19'2 3.8
2017-Apr-26 01:30N 37°48' W 122°17'0 0.0
2017-Apr-26 01:00N 37°48' W 122°17'0 0.0
2017-Apr-23 21:08N 37°48' W 122°17'0 0.0
2017-Apr-23 21:00N 37°48' W 122°17'3 5.5
2017-Apr-23 20:31N 37°48' W 122°20'4 8.4
2017-Apr-23 20:00N 37°49' W 122°25'2 3.1
2017-Apr-23 19:30N 37°49' W 122°27'0 0.2
2017-Apr-23 19:00N 37°49' W 122°27'3 6.9
2017-Apr-23 18:30N 37°52' W 122°27'510.7
2017-Apr-23 18:00N 37°48' W 122°22'4 8.4
2017-Apr-23 17:31N 37°48' W 122°17'0 0.0
2017-Apr-23 17:00N 37°48' W 122°17'  
2017-Apr-21 03:43N 37°48' W 122°17'1 3.1
2017-Apr-21 03:30N 37°48' W 122°18'510.3
2017-Apr-21 03:00N 37°48' W 122°24'1 2.0
2017-Apr-21 02:30N 37°49' W 122°25'0 0.3
2017-Apr-21 02:00N 37°49' W 122°25'3 5.8
2017-Apr-21 01:30N 37°51' W 122°27'2 4.2
2017-Apr-21 01:00N 37°52' W 122°25'3 6.8
2017-Apr-21 00:30N 37°49' W 122°25'0 0.0
2017-Apr-21 00:00N 37°49' W 122°25'1 2.4
2017-Apr-20 23:30N 37°48' W 122°24'510.1
2017-Apr-20 23:01N 37°48' W 122°17'1 1.1
2017-Apr-20 22:30N 37°48' W 122°17'0 0.0
2017-Apr-20 22:00N 37°48' W 122°17'0 0.0
2017-Apr-20 21:30N 37°48' W 122°17'0 0.0
2017-Apr-20 21:00N 37°48' W 122°17'1 1.4
2017-Apr-20 20:30N 37°48' W 122°18'3 5.2
2017-Apr-20 20:00N 37°48' W 122°21'3 6.3
2017-Apr-20 19:30N 37°48' W 122°17'0 0.0
2017-Apr-20 19:00N 37°48' W 122°17'1 1.4
2017-Apr-20 18:30N 37°48' W 122°18'3 5.3
2017-Apr-20 18:00N 37°48' W 122°21'3 6.5
2017-Apr-20 17:30N 37°48' W 122°17'0 0.0
2017-Apr-20 17:00N 37°48' W 122°17'  
Track history (hours):
 
Tides and Currents Weather Stations Pressure Air Temp Water Temp Dewpoint Dewpoint Depression Visibility Wind Speed Wind Dir Waves Ship Positions

Potomac

Owner: POTOMAC ASSOCIATION, OAKLAND, CA. More information available from US FCC via Universal Licensing System and Coast Guard Vessel Documentation Center.

Last reported at 2017-Apr-26 06:40 UTC. Time now 2017-Apr-27 11:03 UTC.
Position N 37°48' W 122°17'.

Length 51 m; draft 3.1 m.

MMSI: 367166810.

Date/timePositionNaut miles runAvg speedWind from/ knotsBaromVisibWave heightAir tempDewpointWater temp
2017-Apr-26 06:40N 37°48' W 122°17'0 0.0
2017-Apr-26 06:30N 37°48' W 122°17'4 7.0
2017-Apr-26 06:00N 37°48' W 122°21'2 3.1
2017-Apr-26 05:30N 37°48' W 122°23'1 1.4
2017-Apr-26 05:00N 37°47' W 122°23'611.4
2017-Apr-26 04:30N 37°51' W 122°28'1 2.7
2017-Apr-26 04:00N 37°50' W 122°28'4 7.2
2017-Apr-26 03:30N 37°49' W 122°24'1 1.9
2017-Apr-26 03:00N 37°48' W 122°24'0 1.0
2017-Apr-26 02:30N 37°47' W 122°23'3 6.0
2017-Apr-26 02:00N 37°48' W 122°19'2 3.8
2017-Apr-26 01:30N 37°48' W 122°17'0 0.0
2017-Apr-26 01:00N 37°48' W 122°17'0 0.0
2017-Apr-23 21:08N 37°48' W 122°17'0 0.0
2017-Apr-23 21:00N 37°48' W 122°17'3 5.5
2017-Apr-23 20:31N 37°48' W 122°20'4 8.4
2017-Apr-23 20:00N 37°49' W 122°25'2 3.1
2017-Apr-23 19:30N 37°49' W 122°27'0 0.2
2017-Apr-23 19:00N 37°49' W 122°27'3 6.9
2017-Apr-23 18:30N 37°52' W 122°27'510.7
2017-Apr-23 18:00N 37°48' W 122°22'4 8.4
2017-Apr-23 17:31N 37°48' W 122°17'0 0.0
2017-Apr-23 17:00N 37°48' W 122°17'  
2017-Apr-21 03:43N 37°48' W 122°17'1 3.1
2017-Apr-21 03:30N 37°48' W 122°18'510.3
2017-Apr-21 03:00N 37°48' W 122°24'1 2.0
2017-Apr-21 02:30N 37°49' W 122°25'0 0.3
2017-Apr-21 02:00N 37°49' W 122°25'3 5.8
2017-Apr-21 01:30N 37°51' W 122°27'2 4.2
2017-Apr-21 01:00N 37°52' W 122°25'3 6.8
2017-Apr-21 00:30N 37°49' W 122°25'0 0.0
2017-Apr-21 00:00N 37°49' W 122°25'1 2.4
2017-Apr-20 23:30N 37°48' W 122°24'510.1
2017-Apr-20 23:01N 37°48' W 122°17'1 1.1
2017-Apr-20 22:30N 37°48' W 122°17'0 0.0
2017-Apr-20 22:00N 37°48' W 122°17'0 0.0
2017-Apr-20 21:30N 37°48' W 122°17'0 0.0
2017-Apr-20 21:00N 37°48' W 122°17'1 1.4
2017-Apr-20 20:30N 37°48' W 122°18'3 5.2
2017-Apr-20 20:00N 37°48' W 122°21'3 6.3
2017-Apr-20 19:30N 37°48' W 122°17'0 0.0
2017-Apr-20 19:00N 37°48' W 122°17'1 1.4
2017-Apr-20 18:30N 37°48' W 122°18'3 5.3
2017-Apr-20 18:00N 37°48' W 122°21'3 6.5
2017-Apr-20 17:30N 37°48' W 122°17'0 0.0
2017-Apr-20 17:00N 37°48' W 122°17'  

Dump ship's entire track history